sensor_id;sensor_type;location;lat;lon;timestamp;pressure;altitude;pressure_sealevel;temperature;humidity
84387;BME280;74580;47.078;15.446;2024-01-25T00:01:56;97938.53;;;21.88;28.43
84387;BME280;74580;47.078;15.446;2024-01-25T00:04:21;97928.00;;;21.86;28.38
84387;BME280;74580;47.078;15.446;2024-01-25T00:06:46;97931.06;;;21.85;28.39
84387;BME280;74580;47.078;15.446;2024-01-25T00:09:12;97934.22;;;21.87;28.39
84387;BME280;74580;47.078;15.446;2024-01-25T00:11:37;97936.16;;;21.86;28.25
84387;BME280;74580;47.078;15.446;2024-01-25T00:14:03;97935.00;;;21.87;28.16
84387;BME280;74580;47.078;15.446;2024-01-25T00:16:28;97945.53;;;21.89;28.20
84387;BME280;74580;47.078;15.446;2024-01-25T00:18:54;97925.72;;;21.88;28.24
84387;BME280;74580;47.078;15.446;2024-01-25T00:21:19;97921.41;;;21.87;28.30
84387;BME280;74580;47.078;15.446;2024-01-25T00:23:45;97936.59;;;21.88;28.23
84387;BME280;74580;47.078;15.446;2024-01-25T00:26:10;97921.06;;;21.89;28.17
84387;BME280;74580;47.078;15.446;2024-01-25T00:28:36;97917.13;;;21.86;28.19
84387;BME280;74580;47.078;15.446;2024-01-25T00:31:02;97926.06;;;21.87;28.22
84387;BME280;74580;47.078;15.446;2024-01-25T00:33:27;97927.66;;;21.88;27.97
84387;BME280;74580;47.078;15.446;2024-01-25T00:35:53;97923.00;;;21.88;28.20
84387;BME280;74580;47.078;15.446;2024-01-25T00:38:18;97923.44;;;21.90;28.22
84387;BME280;74580;47.078;15.446;2024-01-25T00:40:45;97922.66;;;21.90;27.98
84387;BME280;74580;47.078;15.446;2024-01-25T00:43:11;97928.09;;;21.90;28.32
84387;BME280;74580;47.078;15.446;2024-01-25T00:45:37;97937.03;;;21.90;28.25
84387;BME280;74580;47.078;15.446;2024-01-25T00:48:03;97931.59;;;21.90;28.17
84387;BME280;74580;47.078;15.446;2024-01-25T00:50:28;97944.84;;;21.92;28.12
84387;BME280;74580;47.078;15.446;2024-01-25T00:52:54;97937.38;;;21.89;28.04
84387;BME280;74580;47.078;15.446;2024-01-25T00:55:20;97933.19;;;21.91;28.22
84387;BME280;74580;47.078;15.446;2024-01-25T00:57:46;97947.22;;;21.93;28.40
84387;BME280;74580;47.078;15.446;2024-01-25T01:00:12;97955.75;;;21.92;28.11
84387;BME280;74580;47.078;15.446;2024-01-25T01:02:44;97951.44;;;21.91;28.15
84387;BME280;74580;47.078;15.446;2024-01-25T01:05:11;97946.34;;;21.89;28.06
84387;BME280;74580;47.078;15.446;2024-01-25T01:07:38;97954.16;;;21.91;28.27
84387;BME280;74580;47.078;15.446;2024-01-25T01:10:06;97958.03;;;21.90;28.16
84387;BME280;74580;47.078;15.446;2024-01-25T01:12:31;97957.22;;;21.89;28.10
84387;BME280;74580;47.078;15.446;2024-01-25T01:14:57;97947.16;;;21.90;28.30
84387;BME280;74580;47.078;15.446;2024-01-25T01:17:22;97939.75;;;21.90;28.27
84387;BME280;74580;47.078;15.446;2024-01-25T01:19:48;97932.41;;;21.91;28.06
84387;BME280;74580;47.078;15.446;2024-01-25T01:22:13;97926.97;;;21.91;28.25
84387;BME280;74580;47.078;15.446;2024-01-25T01:24:38;97943.28;;;21.91;28.12
84387;BME280;74580;47.078;15.446;2024-01-25T01:27:04;97964.25;;;21.90;28.10
84387;BME280;74580;47.078;15.446;2024-01-25T01:29:29;97937.84;;;21.91;28.01
84387;BME280;74580;47.078;15.446;2024-01-25T01:31:55;97928.09;;;21.90;28.09
84387;BME280;74580;47.078;15.446;2024-01-25T01:34:20;97923.09;;;21.92;28.10
84387;BME280;74580;47.078;15.446;2024-01-25T01:36:45;97910.63;;;21.91;28.27
84387;BME280;74580;47.078;15.446;2024-01-25T01:39:11;97899.31;;;21.89;28.13
84387;BME280;74580;47.078;15.446;2024-01-25T01:41:36;97905.19;;;21.91;28.04
84387;BME280;74580;47.078;15.446;2024-01-25T01:44:01;97906.34;;;21.90;28.10
84387;BME280;74580;47.078;15.446;2024-01-25T01:46:35;97902.91;;;21.93;28.07
84387;BME280;74580;47.078;15.446;2024-01-25T01:49:02;97910.63;;;21.91;28.02
84387;BME280;74580;47.078;15.446;2024-01-25T01:51:29;97893.97;;;21.92;28.01
84387;BME280;74580;47.078;15.446;2024-01-25T01:53:56;97900.09;;;21.89;28.24
84387;BME280;74580;47.078;15.446;2024-01-25T01:56:23;97894.31;;;21.91;27.98
84387;BME280;74580;47.078;15.446;2024-01-25T01:58:49;97890.44;;;21.92;27.98
84387;BME280;74580;47.078;15.446;2024-01-25T02:01:14;97873.31;;;21.91;28.01
84387;BME280;74580;47.078;15.446;2024-01-25T02:03:40;97887.72;;;21.92;28.23
84387;BME280;74580;47.078;15.446;2024-01-25T02:06:06;97883.44;;;21.91;28.16
84387;BME280;74580;47.078;15.446;2024-01-25T02:08:32;97891.59;;;21.91;27.94
84387;BME280;74580;47.078;15.446;2024-01-25T02:10:57;97894.31;;;21.91;28.11
84387;BME280;74580;47.078;15.446;2024-01-25T02:13:22;97885.34;;;21.90;27.89
84387;BME280;74580;47.078;15.446;2024-01-25T02:15:48;97905.63;;;21.93;27.86
84387;BME280;74580;47.078;15.446;2024-01-25T02:18:13;97906.78;;;21.92;28.25
84387;BME280;74580;47.078;15.446;2024-01-25T02:20:40;97903.63;;;21.90;28.02
84387;BME280;74580;47.078;15.446;2024-01-25T02:23:05;97908.25;;;21.89;28.10
84387;BME280;74580;47.078;15.446;2024-01-25T02:25:31;97919.16;;;21.89;28.17
84387;BME280;74580;47.078;15.446;2024-01-25T02:27:56;97914.94;;;21.92;28.03
84387;BME280;74580;47.078;15.446;2024-01-25T02:30:21;97904.41;;;21.90;28.05
84387;BME280;74580;47.078;15.446;2024-01-25T02:32:47;97913.34;;;21.91;28.30
84387;BME280;74580;47.078;15.446;2024-01-25T02:35:12;97910.28;;;21.92;28.03
84387;BME280;74580;47.078;15.446;2024-01-25T02:37:37;97911.06;;;21.93;27.96
84387;BME280;74580;47.078;15.446;2024-01-25T02:40:04;97916.97;;;21.95;28.11
84387;BME280;74580;47.078;15.446;2024-01-25T02:42:29;97919.56;;;21.91;27.67
84387;BME280;74580;47.078;15.446;2024-01-25T02:44:55;97916.84;;;21.91;28.08
84387;BME280;74580;47.078;15.446;2024-01-25T02:47:20;97912.22;;;21.92;28.04
84387;BME280;74580;47.078;15.446;2024-01-25T02:49:46;97925.47;;;21.93;28.07
84387;BME280;74580;47.078;15.446;2024-01-25T02:52:11;97913.34;;;21.91;28.05
84387;BME280;74580;47.078;15.446;2024-01-25T02:54:36;97915.38;;;21.94;28.11
84387;BME280;74580;47.078;15.446;2024-01-25T02:57:02;97933.19;;;21.91;27.93
84387;BME280;74580;47.078;15.446;2024-01-25T02:59:28;97927.72;;;21.91;27.79
84387;BME280;74580;47.078;15.446;2024-01-25T03:01:54;97935.13;;;21.91;28.29
84387;BME280;74580;47.078;15.446;2024-01-25T03:04:19;97929.69;;;21.91;27.93
84387;BME280;74580;47.078;15.446;2024-01-25T03:06:45;97938.19;;;21.89;28.08
84387;BME280;74580;47.078;15.446;2024-01-25T03:09:10;97924.59;;;21.89;27.49
84387;BME280;74580;47.078;15.446;2024-01-25T03:11:35;97942.13;;;21.92;28.00
84387;BME280;74580;47.078;15.446;2024-01-25T03:14:01;97919.56;;;21.91;27.95
84387;BME280;74580;47.078;15.446;2024-01-25T03:16:26;97937.84;;;21.91;27.98
84387;BME280;74580;47.078;15.446;2024-01-25T03:18:52;97929.69;;;21.91;27.83
84387;BME280;74580;47.078;15.446;2024-01-25T03:21:17;97932.41;;;21.91;28.06
84387;BME280;74580;47.078;15.446;2024-01-25T03:23:42;97928.09;;;21.90;27.96
84387;BME280;74580;47.078;15.446;2024-01-25T03:26:08;97934.78;;;21.92;27.94
84387;BME280;74580;47.078;15.446;2024-01-25T03:28:36;97934.31;;;21.90;27.88
84387;BME280;74580;47.078;15.446;2024-01-25T03:31:03;97933.88;;;21.88;27.94
84387;BME280;74580;47.078;15.446;2024-01-25T03:33:29;97911.31;;;21.88;28.01
84387;BME280;74580;47.078;15.446;2024-01-25T03:35:54;97912.13;;;21.88;27.65
84387;BME280;74580;47.078;15.446;2024-01-25T03:38:20;97922.66;;;21.90;27.79
84387;BME280;74580;47.078;15.446;2024-01-25T03:40:45;97928.88;;;21.90;27.75
84387;BME280;74580;47.078;15.446;2024-01-25T03:43:11;97937.84;;;21.91;27.80
84387;BME280;74580;47.078;15.446;2024-01-25T03:45:37;97926.97;;;21.91;27.83
84387;BME280;74580;47.078;15.446;2024-01-25T03:48:02;97907.91;;;21.91;27.90
84387;BME280;74580;47.078;15.446;2024-01-25T03:50:28;97916.09;;;21.91;27.96
84387;BME280;74580;47.078;15.446;2024-01-25T03:52:53;97914.13;;;21.91;28.06
84387;BME280;74580;47.078;15.446;2024-01-25T03:55:19;97931.25;;;21.92;27.77
84387;BME280;74580;47.078;15.446;2024-01-25T03:57:44;97926.63;;;21.92;27.93
84387;BME280;74580;47.078;15.446;2024-01-25T04:00:10;97929.69;;;21.91;27.68
84387;BME280;74580;47.078;15.446;2024-01-25T04:02:36;97928.53;;;21.92;28.04
84387;BME280;74580;47.078;15.446;2024-01-25T04:05:02;97924.66;;;21.93;27.75
84387;BME280;74580;47.078;15.446;2024-01-25T04:07:28;97920.72;;;21.90;27.88
84387;BME280;74580;47.078;15.446;2024-01-25T04:09:53;97917.66;;;21.92;27.83
84387;BME280;74580;47.078;15.446;2024-01-25T04:12:18;97933.19;;;21.91;27.73
84387;BME280;74580;47.078;15.446;2024-01-25T04:14:44;97924.66;;;21.93;27.82
84387;BME280;74580;47.078;15.446;2024-01-25T04:17:09;97938.72;;;21.95;27.82
84387;BME280;74580;47.078;15.446;2024-01-25T04:19:35;97942.94;;;21.92;27.75
84387;BME280;74580;47.078;15.446;2024-01-25T04:22:01;97953.03;;;21.92;28.01
84387;BME280;74580;47.078;15.446;2024-01-25T04:24:26;97957.31;;;21.93;27.76
84387;BME280;74580;47.078;15.446;2024-01-25T04:26:52;97958.13;;;21.93;27.85
84387;BME280;74580;47.078;15.446;2024-01-25T04:29:17;97945.66;;;21.92;27.86
84387;BME280;74580;47.078;15.446;2024-01-25T04:31:43;97940.22;;;21.92;27.48
84387;BME280;74580;47.078;15.446;2024-01-25T04:34:10;97948.38;;;21.92;27.86
84387;BME280;74580;47.078;15.446;2024-01-25T04:36:36;97972.53;;;21.94;27.87
84387;BME280;74580;47.078;15.446;2024-01-25T04:39:02;97946.44;;;21.93;27.82
84387;BME280;74580;47.078;15.446;2024-01-25T04:41:27;97943.72;;;21.93;27.88
84387;BME280;74580;47.078;15.446;2024-01-25T04:43:52;97937.94;;;21.94;27.71
84387;BME280;74580;47.078;15.446;2024-01-25T04:46:18;97953.47;;;21.94;27.70
84387;BME280;74580;47.078;15.446;2024-01-25T04:48:43;97967.41;;;21.92;27.83
84387;BME280;74580;47.078;15.446;2024-01-25T04:51:17;97984.19;;;21.94;27.81
84387;BME280;74580;47.078;15.446;2024-01-25T04:53:43;97967.09;;;21.94;27.77
84387;BME280;74580;47.078;15.446;2024-01-25T04:56:09;98001.19;;;21.91;27.80
84387;BME280;74580;47.078;15.446;2024-01-25T04:58:34;97993.81;;;21.92;27.93
84387;BME280;74580;47.078;15.446;2024-01-25T05:01:00;97966.63;;;21.92;27.70
84387;BME280;74580;47.078;15.446;2024-01-25T05:03:25;97947.56;;;21.92;27.66
84387;BME280;74580;47.078;15.446;2024-01-25T05:05:50;97967.41;;;21.92;27.66
84387;BME280;74580;47.078;15.446;2024-01-25T05:08:16;97978.31;;;21.92;27.78
84387;BME280;74580;47.078;15.446;2024-01-25T05:10:41;98000.84;;;21.93;27.35
84387;BME280;74580;47.078;15.446;2024-01-25T05:13:07;97987.25;;;21.93;28.02
84387;BME280;74580;47.078;15.446;2024-01-25T05:15:33;97998.47;;;21.91;27.74
84387;BME280;74580;47.078;15.446;2024-01-25T05:17:58;97990.31;;;21.91;27.79
84387;BME280;74580;47.078;15.446;2024-01-25T05:20:24;97997.34;;;21.92;27.80
84387;BME280;74580;47.078;15.446;2024-01-25T05:22:53;98017.16;;;21.93;27.92
84387;BME280;74580;47.078;15.446;2024-01-25T05:25:18;98019.88;;;21.93;27.71
84387;BME280;74580;47.078;15.446;2024-01-25T05:27:44;98018.78;;;21.94;27.66
84387;BME280;74580;47.078;15.446;2024-01-25T05:30:09;98030.00;;;21.92;27.81
84387;BME280;74580;47.078;15.446;2024-01-25T05:32:35;98018.78;;;21.94;27.82
84387;BME280;74580;47.078;15.446;2024-01-25T05:35:00;98021.91;;;21.96;27.85
84387;BME280;74580;47.078;15.446;2024-01-25T05:37:26;98027.69;;;21.94;27.59
84387;BME280;74580;47.078;15.446;2024-01-25T05:39:51;98024.63;;;21.96;27.72
84387;BME280;74580;47.078;15.446;2024-01-25T05:42:17;98028.16;;;21.96;27.79
84387;BME280;74580;47.078;15.446;2024-01-25T05:44:42;98035.19;;;21.97;28.06
84387;BME280;74580;47.078;15.446;2024-01-25T05:47:07;98033.25;;;21.98;27.80
84387;BME280;74580;47.078;15.446;2024-01-25T05:49:33;98052.31;;;21.98;27.68
84387;BME280;74580;47.078;15.446;2024-01-25T05:51:58;98049.59;;;21.98;27.70
84387;BME280;74580;47.078;15.446;2024-01-25T05:54:24;98061.25;;;21.98;27.69
84387;BME280;74580;47.078;15.446;2024-01-25T05:56:49;98058.53;;;21.98;28.22
84387;BME280;74580;47.078;15.446;2024-01-25T05:59:14;98046.88;;;21.98;28.58
84387;BME280;74580;47.078;15.446;2024-01-25T06:01:40;98049.59;;;21.98;28.78
84387;BME280;74580;47.078;15.446;2024-01-25T06:04:05;98060.00;;;21.96;28.54
84387;BME280;74580;47.078;15.446;2024-01-25T06:06:30;98052.19;;;21.94;28.56
84387;BME280;74580;47.078;15.446;2024-01-25T06:08:56;98056.47;;;21.95;28.55
84387;BME280;74580;47.078;15.446;2024-01-25T06:11:22;98061.16;;;21.95;28.55
84387;BME280;74580;47.078;15.446;2024-01-25T06:13:47;98068.16;;;21.96;28.22
84387;BME280;74580;47.078;15.446;2024-01-25T06:16:12;98063.22;;;21.86;26.50
84387;BME280;74580;47.078;15.446;2024-01-25T06:18:38;98073.44;;;21.41;25.62
84387;BME280;74580;47.078;15.446;2024-01-25T06:21:03;98062.13;;;21.15;26.55
84387;BME280;74580;47.078;15.446;2024-01-25T06:23:29;98056.22;;;21.49;27.20
84387;BME280;74580;47.078;15.446;2024-01-25T06:25:54;98050.63;;;21.69;26.97
84387;BME280;74580;47.078;15.446;2024-01-25T06:28:19;98056.44;;;21.80;26.89
84387;BME280;74580;47.078;15.446;2024-01-25T06:30:45;98062.28;;;21.94;26.76
84387;BME280;74580;47.078;15.446;2024-01-25T06:33:10;98062.59;;;22.04;26.88
84387;BME280;74580;47.078;15.446;2024-01-25T06:35:35;98058.81;;;22.09;26.89
84387;BME280;74580;47.078;15.446;2024-01-25T06:38:01;98076.25;;;22.20;27.24
84387;BME280;74580;47.078;15.446;2024-01-25T06:40:26;98060.38;;;22.22;27.35
84387;BME280;74580;47.078;15.446;2024-01-25T06:42:51;98078.28;;;22.23;27.02
84387;BME280;74580;47.078;15.446;2024-01-25T06:45:17;98083.06;;;22.26;27.33
84387;BME280;74580;47.078;15.446;2024-01-25T06:47:42;98103.34;;;22.28;27.12
84387;BME280;74580;47.078;15.446;2024-01-25T06:50:08;98096.28;;;22.27;27.33
84387;BME280;74580;47.078;15.446;2024-01-25T06:52:34;98100.63;;;22.28;27.57
84387;BME280;74580;47.078;15.446;2024-01-25T06:54:59;98114.22;;;22.28;27.48
84387;BME280;74580;47.078;15.446;2024-01-25T06:57:25;98091.66;;;22.28;27.90
84387;BME280;74580;47.078;15.446;2024-01-25T06:59:50;98097.56;;;22.30;27.63
84387;BME280;74580;47.078;15.446;2024-01-25T07:02:15;98105.25;;;22.28;27.88
84387;BME280;74580;47.078;15.446;2024-01-25T07:04:41;98115.00;;;22.29;27.91
84387;BME280;74580;47.078;15.446;2024-01-25T07:07:06;98121.59;;;22.28;27.82
84387;BME280;74580;47.078;15.446;2024-01-25T07:09:32;98132.47;;;22.28;28.00
84387;BME280;74580;47.078;15.446;2024-01-25T07:11:57;98130.56;;;22.28;28.20
84387;BME280;74580;47.078;15.446;2024-01-25T07:14:23;98132.81;;;22.26;28.05
84387;BME280;74580;47.078;15.446;2024-01-25T07:16:48;98128.94;;;22.27;28.03
84387;BME280;74580;47.078;15.446;2024-01-25T07:19:13;98109.91;;;22.27;28.33
84387;BME280;74580;47.078;15.446;2024-01-25T07:21:39;98113.75;;;22.26;28.27
84387;BME280;74580;47.078;15.446;2024-01-25T07:24:05;98107.19;;;22.27;28.28
84387;BME280;74580;47.078;15.446;2024-01-25T07:26:31;98111.50;;;22.28;28.30
84387;BME280;74580;47.078;15.446;2024-01-25T07:28:56;98113.44;;;22.28;28.25
84387;BME280;74580;47.078;15.446;2024-01-25T07:31:27;98125.13;;;22.28;28.40
84387;BME280;74580;47.078;15.446;2024-01-25T07:33:53;98128.72;;;22.32;28.23
84387;BME280;74580;47.078;15.446;2024-01-25T07:36:19;98127.50;;;22.30;28.33
84387;BME280;74580;47.078;15.446;2024-01-25T07:38:44;98112.28;;;22.29;28.33
84387;BME280;74580;47.078;15.446;2024-01-25T07:41:12;98120.78;;;22.27;28.54
84387;BME280;74580;47.078;15.446;2024-01-25T07:43:38;98123.16;;;22.29;28.66
84387;BME280;74580;47.078;15.446;2024-01-25T07:46:03;98117.38;;;22.30;28.44
84387;BME280;74580;47.078;15.446;2024-01-25T07:48:29;98123.63;;;22.31;28.63
84387;BME280;74580;47.078;15.446;2024-01-25T07:50:54;98105.00;;;22.33;28.54
84387;BME280;74580;47.078;15.446;2024-01-25T07:53:19;98110.44;;;22.33;28.62
84387;BME280;74580;47.078;15.446;2024-01-25T07:55:45;98087.44;;;22.30;28.49
84387;BME280;74580;47.078;15.446;2024-01-25T07:58:10;98050.47;;;22.29;28.70
84387;BME280;74580;47.078;15.446;2024-01-25T08:00:36;98055.91;;;22.29;28.74
84387;BME280;74580;47.078;15.446;2024-01-25T08:03:01;98072.69;;;22.31;28.81
84387;BME280;74580;47.078;15.446;2024-01-25T08:05:26;98092.88;;;22.30;28.50
84387;BME280;74580;47.078;15.446;2024-01-25T08:07:52;98092.19;;;22.33;28.85
84387;BME280;74580;47.078;15.446;2024-01-25T08:10:17;98110.34;;;22.29;28.39
84387;BME280;74580;47.078;15.446;2024-01-25T08:12:42;98108.53;;;22.06;27.65
84387;BME280;74580;47.078;15.446;2024-01-25T08:15:10;98087.72;;;22.13;28.06
84387;BME280;74580;47.078;15.446;2024-01-25T08:17:37;98093.97;;;22.14;27.95
84387;BME280;74580;47.078;15.446;2024-01-25T08:20:03;98093.25;;;22.17;28.08
84387;BME280;74580;47.078;15.446;2024-01-25T08:22:31;98085.56;;;22.19;28.06
84387;BME280;74580;47.078;15.446;2024-01-25T08:24:56;98081.00;;;22.23;27.97
84387;BME280;74580;47.078;15.446;2024-01-25T08:27:22;98077.94;;;22.24;28.08
84387;BME280;74580;47.078;15.446;2024-01-25T08:29:47;98076.81;;;22.25;28.24
84387;BME280;74580;47.078;15.446;2024-01-25T08:32:12;98082.34;;;22.29;28.21
84387;BME280;74580;47.078;15.446;2024-01-25T08:34:38;98059.44;;;22.30;27.93
84387;BME280;74580;47.078;15.446;2024-01-25T08:37:03;98041.97;;;22.31;28.14
84387;BME280;74580;47.078;15.446;2024-01-25T08:39:28;98035.72;;;22.30;28.21
84387;BME280;74580;47.078;15.446;2024-01-25T08:41:54;98014.81;;;22.19;28.03
84387;BME280;74580;47.078;15.446;2024-01-25T08:44:20;98006.38;;;22.24;27.63
84387;BME280;74580;47.078;15.446;2024-01-25T08:46:45;97995.16;;;22.25;27.75
84387;BME280;74580;47.078;15.446;2024-01-25T08:49:13;98015.78;;;22.26;27.80
84387;BME280;74580;47.078;15.446;2024-01-25T08:51:39;98005.34;;;22.28;27.85
84387;BME280;74580;47.078;15.446;2024-01-25T08:54:04;98028.34;;;22.31;27.74
84387;BME280;74580;47.078;15.446;2024-01-25T08:56:29;97995.34;;;22.32;27.66
84387;BME280;74580;47.078;15.446;2024-01-25T08:58:55;97981.38;;;22.34;27.79
84387;BME280;74580;47.078;15.446;2024-01-25T09:01:20;98006.66;;;22.34;27.83
84387;BME280;74580;47.078;15.446;2024-01-25T09:03:46;97973.66;;;22.36;27.65
84387;BME280;74580;47.078;15.446;2024-01-25T09:06:12;97977.94;;;22.37;28.00
84387;BME280;74580;47.078;15.446;2024-01-25T09:08:37;97984.19;;;22.37;27.94
84387;BME280;74580;47.078;15.446;2024-01-25T09:11:03;97978.41;;;22.39;27.83
84387;BME280;74580;47.078;15.446;2024-01-25T09:13:28;97986.56;;;22.39;28.19
84387;BME280;74580;47.078;15.446;2024-01-25T09:15:55;97990.44;;;22.38;28.19
84387;BME280;74580;47.078;15.446;2024-01-25T09:18:20;98001.41;;;22.41;28.05
84387;BME280;74580;47.078;15.446;2024-01-25T09:20:46;98001.75;;;22.40;28.04
84387;BME280;74580;47.078;15.446;2024-01-25T09:23:14;98012.31;;;22.41;28.21
84387;BME280;74580;47.078;15.446;2024-01-25T09:25:42;98016.94;;;22.41;28.25
84387;BME280;74580;47.078;15.446;2024-01-25T09:28:07;98037.59;;;22.42;28.44
84387;BME280;74580;47.078;15.446;2024-01-25T09:30:33;98029.44;;;22.42;28.23
84387;BME280;74580;47.078;15.446;2024-01-25T09:33:01;98036.47;;;22.43;28.26
84387;BME280;74580;47.078;15.446;2024-01-25T09:35:26;98054.38;;;22.44;28.51
84387;BME280;74580;47.078;15.446;2024-01-25T09:37:52;98048.94;;;22.44;28.35
84387;BME280;74580;47.078;15.446;2024-01-25T09:40:18;98047.00;;;22.44;28.24
84387;BME280;74580;47.078;15.446;2024-01-25T09:42:47;98047.78;;;22.45;28.54
84387;BME280;74580;47.078;15.446;2024-01-25T09:45:16;98051.66;;;22.44;28.30
84387;BME280;74580;47.078;15.446;2024-01-25T09:47:43;98077.72;;;22.45;28.40
84387;BME280;74580;47.078;15.446;2024-01-25T09:50:09;98070.06;;;22.47;28.44
84387;BME280;74580;47.078;15.446;2024-01-25T09:52:35;98054.47;;;22.47;28.32
84387;BME280;74580;47.078;15.446;2024-01-25T09:55:01;98057.22;;;22.47;28.55
84387;BME280;74580;47.078;15.446;2024-01-25T09:57:28;98059.94;;;22.47;28.44
84387;BME280;74580;47.078;15.446;2024-01-25T09:59:55;98072.44;;;22.48;28.31
84387;BME280;74580;47.078;15.446;2024-01-25T10:02:21;98061.53;;;22.48;28.48
84387;BME280;74580;47.078;15.446;2024-01-25T10:04:53;98074.00;;;22.49;28.52
84387;BME280;74580;47.078;15.446;2024-01-25T10:07:45;98072.06;;;22.50;28.60
84387;BME280;74580;47.078;15.446;2024-01-25T10:10:12;98083.75;;;22.50;28.57
84387;BME280;74580;47.078;15.446;2024-01-25T10:12:39;98059.25;;;22.50;28.49
84387;BME280;74580;47.078;15.446;2024-01-25T10:15:05;98068.56;;;22.49;28.42
84387;BME280;74580;47.078;15.446;2024-01-25T10:17:31;98067.06;;;22.52;28.69
84387;BME280;74580;47.078;15.446;2024-01-25T10:19:56;98063.19;;;22.53;28.68
84387;BME280;74580;47.078;15.446;2024-01-25T10:22:22;98072.94;;;22.54;28.67
84387;BME280;74580;47.078;15.446;2024-01-25T10:24:48;98055.84;;;22.53;28.61
84387;BME280;74580;47.078;15.446;2024-01-25T10:27:15;98055.50;;;22.55;28.63
84387;BME280;74580;47.078;15.446;2024-01-25T10:29:44;98043.44;;;22.56;28.72
84387;BME280;74580;47.078;15.446;2024-01-25T10:32:10;98071.91;;;22.58;28.43
84387;BME280;74580;47.078;15.446;2024-01-25T10:34:36;98059.44;;;22.57;28.59
84387;BME280;74580;47.078;15.446;2024-01-25T10:37:08;98063.75;;;22.58;28.75
84387;BME280;74580;47.078;15.446;2024-01-25T10:39:34;98048.19;;;22.59;28.58
84387;BME280;74580;47.078;15.446;2024-01-25T10:42:00;98057.94;;;22.60;28.75
84387;BME280;74580;47.078;15.446;2024-01-25T10:44:26;98054.88;;;22.61;28.54
84387;BME280;74580;47.078;15.446;2024-01-25T10:46:52;98059.63;;;22.64;28.63
84387;BME280;74580;47.078;15.446;2024-01-25T10:49:19;98054.19;;;22.64;28.62
84387;BME280;74580;47.078;15.446;2024-01-25T10:51:45;98054.53;;;22.63;28.87
84387;BME280;74580;47.078;15.446;2024-01-25T10:54:12;98041.34;;;22.65;28.86
84387;BME280;74580;47.078;15.446;2024-01-25T10:56:41;98026.31;;;22.55;26.70
84387;BME280;74580;47.078;15.446;2024-01-25T10:59:07;98032.91;;;22.54;28.08
84387;BME280;74580;47.078;15.446;2024-01-25T11:01:34;98051.16;;;22.54;27.75
84387;BME280;74580;47.078;15.446;2024-01-25T11:04:00;98045.38;;;22.55;27.76
84387;BME280;74580;47.078;15.446;2024-01-25T11:06:26;98038.44;;;22.58;27.79
84387;BME280;74580;47.078;15.446;2024-01-25T11:08:52;98051.69;;;22.59;27.71
84387;BME280;74580;47.078;15.446;2024-01-25T11:11:30;98025.34;;;22.63;27.93
84387;BME280;74580;47.078;15.446;2024-01-25T11:13:56;98030.91;;;22.67;27.38
84387;BME280;74580;47.078;15.446;2024-01-25T11:16:30;98036.78;;;22.69;27.79
84387;BME280;74580;47.078;15.446;2024-01-25T11:18:59;98029.50;;;22.73;27.90
84387;BME280;74580;47.078;15.446;2024-01-25T11:21:44;98010.44;;;22.73;27.90
84387;BME280;74580;47.078;15.446;2024-01-25T11:24:17;98030.81;;;22.79;27.79
84387;BME280;74580;47.078;15.446;2024-01-25T11:26:46;98025.81;;;22.81;27.70
84387;BME280;74580;47.078;15.446;2024-01-25T11:29:15;98025.47;;;22.82;28.13
84387;BME280;74580;47.078;15.446;2024-01-25T11:31:44;98019.22;;;22.82;27.96
84387;BME280;74580;47.078;15.446;2024-01-25T11:34:11;98024.66;;;22.82;28.04
84387;BME280;74580;47.078;15.446;2024-01-25T11:36:37;98024.22;;;22.80;28.10
84387;BME280;74580;47.078;15.446;2024-01-25T11:39:03;98031.25;;;22.81;28.01
84387;BME280;74580;47.078;15.446;2024-01-25T11:41:30;98019.13;;;22.78;28.06
84387;BME280;74580;47.078;15.446;2024-01-25T11:43:56;98012.53;;;22.79;27.98
84387;BME280;74580;47.078;15.446;2024-01-25T11:46:22;98009.72;;;22.76;27.92
84387;BME280;74580;47.078;15.446;2024-01-25T11:48:47;98010.06;;;22.74;28.16
84387;BME280;74580;47.078;15.446;2024-01-25T11:51:13;98011.56;;;22.72;28.36
84387;BME280;74580;47.078;15.446;2024-01-25T11:53:41;98022.47;;;22.72;28.14
84387;BME280;74580;47.078;15.446;2024-01-25T11:56:10;98018.16;;;22.71;27.95
84387;BME280;74580;47.078;15.446;2024-01-25T11:58:38;98022.00;;;22.70;28.30
84387;BME280;74580;47.078;15.446;2024-01-25T12:01:05;98040.31;;;22.69;28.17
84387;BME280;74580;47.078;15.446;2024-01-25T12:03:37;98027.47;;;22.70;27.97
84387;BME280;74580;47.078;15.446;2024-01-25T12:06:03;98022.00;;;22.70;27.82
84387;BME280;74580;47.078;15.446;2024-01-25T12:08:31;98029.75;;;22.68;27.99
84387;BME280;74580;47.078;15.446;2024-01-25T12:11:06;98034.84;;;22.69;27.94
84387;BME280;74580;47.078;15.446;2024-01-25T12:13:38;98034.06;;;22.69;28.30
84387;BME280;74580;47.078;15.446;2024-01-25T12:16:04;98041.06;;;22.70;28.15
84387;BME280;74580;47.078;15.446;2024-01-25T12:18:30;98044.19;;;22.68;27.91
84387;BME280;74580;47.078;15.446;2024-01-25T12:21:00;98025.47;;;22.67;28.12
84387;BME280;74580;47.078;15.446;2024-01-25T12:23:37;98019.66;;;22.68;28.12
84387;BME280;74580;47.078;15.446;2024-01-25T12:26:07;98033.72;;;22.70;27.89
84387;BME280;74580;47.078;15.446;2024-01-25T12:28:33;98020.44;;;22.69;27.78
84387;BME280;74580;47.078;15.446;2024-01-25T12:31:00;98026.69;;;22.69;27.90
84387;BME280;74580;47.078;15.446;2024-01-25T12:33:26;98026.34;;;22.71;28.07
84387;BME280;74580;47.078;15.446;2024-01-25T12:35:51;98004.56;;;22.71;28.27
84387;BME280;74580;47.078;15.446;2024-01-25T12:38:19;98004.56;;;22.71;28.05
84387;BME280;74580;47.078;15.446;2024-01-25T12:40:46;98010.44;;;22.73;28.21
84387;BME280;74580;47.078;15.446;2024-01-25T12:43:12;98010.00;;;22.71;27.97
84387;BME280;74580;47.078;15.446;2024-01-25T12:45:38;98016.13;;;22.68;28.15